sensor_id;sensor_type;location;lat;lon;timestamp;P1;durP1;ratioP1;P2;durP2;ratioP2
40595;SDS011;26304;48.794;9.820;2022-09-30T00:05:11;3.90;;;3.60;;
40595;SDS011;26304;48.794;9.820;2022-09-30T00:10:57;4.20;;;3.80;;
40595;SDS011;26304;48.794;9.820;2022-09-30T00:16:43;4.40;;;3.95;;
40595;SDS011;26304;48.794;9.820;2022-09-30T00:22:25;3.97;;;3.65;;
40595;SDS011;26304;48.794;9.820;2022-09-30T00:28:08;3.67;;;3.38;;
40595;SDS011;26304;48.794;9.820;2022-09-30T00:33:51;4.55;;;3.60;;
40595;SDS011;26304;48.794;9.820;2022-09-30T00:39:47;3.50;;;3.20;;
40595;SDS011;26304;48.794;9.820;2022-09-30T00:45:29;3.20;;;3.00;;
40595;SDS011;26304;48.794;9.820;2022-09-30T00:51:15;3.60;;;3.30;;
40595;SDS011;26304;48.794;9.820;2022-09-30T00:56:59;3.22;;;3.00;;
40595;SDS011;26304;48.794;9.820;2022-09-30T01:02:44;2.92;;;2.72;;
40595;SDS011;26304;48.794;9.820;2022-09-30T01:08:28;3.30;;;3.00;;
40595;SDS011;26304;48.794;9.820;2022-09-30T01:14:14;3.97;;;3.10;;
40595;SDS011;26304;48.794;9.820;2022-09-30T01:20:07;3.13;;;2.92;;
40595;SDS011;26304;48.794;9.820;2022-09-30T01:26:13;2.75;;;2.55;;
40595;SDS011;26304;48.794;9.820;2022-09-30T01:32:25;3.30;;;3.05;;
40595;SDS011;26304;48.794;9.820;2022-09-30T01:38:14;3.03;;;2.72;;
40595;SDS011;26304;48.794;9.820;2022-09-30T01:44:10;3.05;;;2.75;;
40595;SDS011;26304;48.794;9.820;2022-09-30T01:49:59;2.92;;;2.70;;
40595;SDS011;26304;48.794;9.820;2022-09-30T01:55:48;2.55;;;2.35;;
40595;SDS011;26304;48.794;9.820;2022-09-30T02:01:34;2.45;;;2.25;;
40595;SDS011;26304;48.794;9.820;2022-09-30T02:07:22;2.72;;;2.53;;
40595;SDS011;26304;48.794;9.820;2022-09-30T02:13:11;2.42;;;2.22;;
40595;SDS011;26304;48.794;9.820;2022-09-30T02:18:59;2.70;;;2.50;;
40595;SDS011;26304;48.794;9.820;2022-09-30T02:24:49;2.38;;;2.28;;
40595;SDS011;26304;48.794;9.820;2022-09-30T02:30:36;2.28;;;2.15;;
40595;SDS011;26304;48.794;9.820;2022-09-30T02:36:23;2.28;;;2.15;;
40595;SDS011;26304;48.794;9.820;2022-09-30T02:42:12;2.50;;;2.30;;
40595;SDS011;26304;48.794;9.820;2022-09-30T02:48:02;2.40;;;2.20;;
40595;SDS011;26304;48.794;9.820;2022-09-30T02:53:51;2.72;;;2.53;;
40595;SDS011;26304;48.794;9.820;2022-09-30T02:59:42;2.60;;;2.40;;
40595;SDS011;26304;48.794;9.820;2022-09-30T03:05:26;2.38;;;2.17;;
40595;SDS011;26304;48.794;9.820;2022-09-30T03:11:10;2.53;;;2.33;;
40595;SDS011;26304;48.794;9.820;2022-09-30T03:17:01;2.67;;;2.47;;
40595;SDS011;26304;48.794;9.820;2022-09-30T03:29:29;2.50;;;2.30;;
40595;SDS011;26304;48.794;9.820;2022-09-30T03:35:24;2.38;;;2.17;;
40595;SDS011;26304;48.794;9.820;2022-09-30T03:41:15;2.10;;;2.00;;
40595;SDS011;26304;48.794;9.820;2022-09-30T03:47:04;2.15;;;2.05;;
40595;SDS011;26304;48.794;9.820;2022-09-30T03:52:51;2.05;;;1.90;;
40595;SDS011;26304;48.794;9.820;2022-09-30T03:58:33;2.33;;;2.10;;
40595;SDS011;26304;48.794;9.820;2022-09-30T04:04:18;3.58;;;2.17;;
40595;SDS011;26304;48.794;9.820;2022-09-30T04:10:02;2.47;;;2.28;;
40595;SDS011;26304;48.794;9.820;2022-09-30T04:15:51;2.70;;;2.45;;
40595;SDS011;26304;48.794;9.820;2022-09-30T04:21:35;6.20;;;2.67;;
40595;SDS011;26304;48.794;9.820;2022-09-30T04:27:19;4.15;;;3.00;;
40595;SDS011;26304;48.794;9.820;2022-09-30T04:33:01;5.85;;;2.60;;
40595;SDS011;26304;48.794;9.820;2022-09-30T04:38:44;3.53;;;2.38;;
40595;SDS011;26304;48.794;9.820;2022-09-30T04:44:28;4.85;;;2.47;;
40595;SDS011;26304;48.794;9.820;2022-09-30T04:50:10;2.63;;;2.35;;
40595;SDS011;26304;48.794;9.820;2022-09-30T04:55:57;2.40;;;2.20;;
40595;SDS011;26304;48.794;9.820;2022-09-30T05:01:42;4.95;;;2.22;;
40595;SDS011;26304;48.794;9.820;2022-09-30T05:07:24;2.50;;;2.25;;
40595;SDS011;26304;48.794;9.820;2022-09-30T05:13:07;3.00;;;2.30;;
40595;SDS011;26304;48.794;9.820;2022-09-30T05:18:50;3.38;;;2.50;;
40595;SDS011;26304;48.794;9.820;2022-09-30T05:24:33;3.00;;;2.60;;
40595;SDS011;26304;48.794;9.820;2022-09-30T05:30:15;4.78;;;2.30;;
40595;SDS011;26304;48.794;9.820;2022-09-30T05:35:59;2.45;;;2.25;;
40595;SDS011;26304;48.794;9.820;2022-09-30T05:41:43;3.95;;;2.50;;
40595;SDS011;26304;48.794;9.820;2022-09-30T05:47:25;3.17;;;2.50;;
40595;SDS011;26304;48.794;9.820;2022-09-30T05:53:09;2.70;;;2.10;;
40595;SDS011;26304;48.794;9.820;2022-09-30T05:58:51;2.83;;;2.13;;
40595;SDS011;26304;48.794;9.820;2022-09-30T06:04:34;2.97;;;1.98;;
40595;SDS011;26304;48.794;9.820;2022-09-30T06:10:18;2.60;;;2.10;;
40595;SDS011;26304;48.794;9.820;2022-09-30T06:16:00;3.42;;;2.47;;
40595;SDS011;26304;48.794;9.820;2022-09-30T06:21:43;3.72;;;2.15;;
40595;SDS011;26304;48.794;9.820;2022-09-30T06:27:27;2.80;;;2.30;;
40595;SDS011;26304;48.794;9.820;2022-09-30T06:33:09;2.97;;;2.20;;
40595;SDS011;26304;48.794;9.820;2022-09-30T06:38:52;2.95;;;2.50;;
40595;SDS011;26304;48.794;9.820;2022-09-30T06:44:36;3.38;;;2.28;;
40595;SDS011;26304;48.794;9.820;2022-09-30T06:50:18;2.42;;;2.22;;
40595;SDS011;26304;48.794;9.820;2022-09-30T06:56:02;3.78;;;2.35;;
40595;SDS011;26304;48.794;9.820;2022-09-30T07:01:46;3.38;;;2.15;;
40595;SDS011;26304;48.794;9.820;2022-09-30T07:07:28;2.92;;;2.22;;
40595;SDS011;26304;48.794;9.820;2022-09-30T07:13:14;2.08;;;1.88;;
40595;SDS011;26304;48.794;9.820;2022-09-30T07:18:58;3.35;;;2.22;;
40595;SDS011;26304;48.794;9.820;2022-09-30T07:24:41;2.67;;;2.30;;
40595;SDS011;26304;48.794;9.820;2022-09-30T07:30:24;2.63;;;2.15;;
40595;SDS011;26304;48.794;9.820;2022-09-30T07:36:08;1.90;;;1.80;;
40595;SDS011;26304;48.794;9.820;2022-09-30T07:41:51;3.00;;;1.88;;
40595;SDS011;26304;48.794;9.820;2022-09-30T07:47:37;2.17;;;1.70;;
40595;SDS011;26304;48.794;9.820;2022-09-30T07:53:20;2.53;;;1.92;;
40595;SDS011;26304;48.794;9.820;2022-09-30T07:59:03;3.67;;;1.98;;
40595;SDS011;26304;48.794;9.820;2022-09-30T08:04:46;2.35;;;2.15;;
40595;SDS011;26304;48.794;9.820;2022-09-30T08:10:33;2.17;;;1.95;;
40595;SDS011;26304;48.794;9.820;2022-09-30T08:16:15;2.88;;;2.15;;
40595;SDS011;26304;48.794;9.820;2022-09-30T08:21:58;1.88;;;1.77;;
40595;SDS011;26304;48.794;9.820;2022-09-30T08:27:41;1.83;;;1.73;;
40595;SDS011;26304;48.794;9.820;2022-09-30T08:33:24;2.28;;;1.83;;
40595;SDS011;26304;48.794;9.820;2022-09-30T08:39:06;2.35;;;1.80;;
40595;SDS011;26304;48.794;9.820;2022-09-30T08:44:52;2.25;;;2.00;;
40595;SDS011;26304;48.794;9.820;2022-09-30T08:50:41;2.63;;;1.98;;
40595;SDS011;26304;48.794;9.820;2022-09-30T08:56:31;1.88;;;1.77;;
40595;SDS011;26304;48.794;9.820;2022-09-30T09:02:17;2.05;;;1.70;;
40595;SDS011;26304;48.794;9.820;2022-09-30T09:08:03;2.35;;;1.75;;
40595;SDS011;26304;48.794;9.820;2022-09-30T09:13:54;2.00;;;1.80;;
40595;SDS011;26304;48.794;9.820;2022-09-30T09:19:46;3.28;;;1.60;;
40595;SDS011;26304;48.794;9.820;2022-09-30T09:25:35;1.75;;;1.65;;
40595;SDS011;26304;48.794;9.820;2022-09-30T09:31:19;1.90;;;1.80;;
40595;SDS011;26304;48.794;9.820;2022-09-30T09:37:06;1.98;;;1.50;;
40595;SDS011;26304;48.794;9.820;2022-09-30T09:43:01;3.53;;;1.77;;
40595;SDS011;26304;48.794;9.820;2022-09-30T09:49:13;2.33;;;1.70;;
40595;SDS011;26304;48.794;9.820;2022-09-30T09:55:10;1.90;;;1.55;;
40595;SDS011;26304;48.794;9.820;2022-09-30T10:00:57;1.80;;;1.65;;
40595;SDS011;26304;48.794;9.820;2022-09-30T10:07:11;1.73;;;1.63;;
40595;SDS011;26304;48.794;9.820;2022-09-30T10:12:57;1.85;;;1.75;;
40595;SDS011;26304;48.794;9.820;2022-09-30T10:18:39;1.85;;;1.65;;
40595;SDS011;26304;48.794;9.820;2022-09-30T10:24:25;1.77;;;1.67;;
40595;SDS011;26304;48.794;9.820;2022-09-30T10:30:11;2.47;;;1.85;;
40595;SDS011;26304;48.794;9.820;2022-09-30T10:35:54;2.60;;;1.88;;
40595;SDS011;26304;48.794;9.820;2022-09-30T10:41:41;3.15;;;1.98;;
40595;SDS011;26304;48.794;9.820;2022-09-30T10:47:25;2.28;;;2.08;;
40595;SDS011;26304;48.794;9.820;2022-09-30T10:53:10;2.10;;;1.90;;
40595;SDS011;26304;48.794;9.820;2022-09-30T10:58:58;2.35;;;1.65;;
40595;SDS011;26304;48.794;9.820;2022-09-30T11:04:47;2.03;;;1.70;;
40595;SDS011;26304;48.794;9.820;2022-09-30T11:10:39;2.00;;;1.73;;
40595;SDS011;26304;48.794;9.820;2022-09-30T11:16:28;1.40;;;1.30;;
40595;SDS011;26304;48.794;9.820;2022-09-30T11:22:25;1.55;;;1.45;;
40595;SDS011;26304;48.794;9.820;2022-09-30T11:28:29;1.48;;;1.30;;
40595;SDS011;26304;48.794;9.820;2022-09-30T11:34:27;1.52;;;1.30;;
40595;SDS011;26304;48.794;9.820;2022-09-30T11:40:34;1.50;;;1.35;;
40595;SDS011;26304;48.794;9.820;2022-09-30T11:46:28;1.52;;;1.42;;
40595;SDS011;26304;48.794;9.820;2022-09-30T11:52:26;2.95;;;1.42;;
40595;SDS011;26304;48.794;9.820;2022-09-30T11:58:18;1.45;;;1.35;;
40595;SDS011;26304;48.794;9.820;2022-09-30T12:04:04;1.42;;;1.33;;
40595;SDS011;26304;48.794;9.820;2022-09-30T12:09:52;2.05;;;1.25;;
40595;SDS011;26304;48.794;9.820;2022-09-30T12:15:40;1.73;;;1.30;;
40595;SDS011;26304;48.794;9.820;2022-09-30T12:21:27;2.15;;;1.58;;
40595;SDS011;26304;48.794;9.820;2022-09-30T12:27:15;1.20;;;1.20;;
40595;SDS011;26304;48.794;9.820;2022-09-30T12:33:09;1.42;;;1.33;;
40595;SDS011;26304;48.794;9.820;2022-09-30T12:39:17;2.25;;;1.48;;
40595;SDS011;26304;48.794;9.820;2022-09-30T12:45:35;1.33;;;1.23;;
40595;SDS011;26304;48.794;9.820;2022-09-30T12:51:42;1.80;;;1.10;;
40595;SDS011;26304;48.794;9.820;2022-09-30T12:57:26;1.88;;;1.30;;
40595;SDS011;26304;48.794;9.820;2022-09-30T13:03:13;1.95;;;1.40;;
40595;SDS011;26304;48.794;9.820;2022-09-30T13:09:16;2.10;;;1.40;;
40595;SDS011;26304;48.794;9.820;2022-09-30T13:21:20;3.50;;;1.17;;
40595;SDS011;26304;48.794;9.820;2022-09-30T13:27:11;1.15;;;1.05;;
40595;SDS011;26304;48.794;9.820;2022-09-30T13:33:03;1.40;;;1.10;;
40595;SDS011;26304;48.794;9.820;2022-09-30T13:39:18;1.05;;;0.95;;
40595;SDS011;26304;48.794;9.820;2022-09-30T13:45:03;1.15;;;1.05;;
40595;SDS011;26304;48.794;9.820;2022-09-30T13:50:53;1.30;;;1.17;;
40595;SDS011;26304;48.794;9.820;2022-09-30T13:56:40;1.88;;;0.90;;
40595;SDS011;26304;48.794;9.820;2022-09-30T14:02:45;1.10;;;1.00;;
40595;SDS011;26304;48.794;9.820;2022-09-30T14:08:50;1.00;;;0.90;;
40595;SDS011;26304;48.794;9.820;2022-09-30T14:15:01;0.90;;;0.90;;
40595;SDS011;26304;48.794;9.820;2022-09-30T14:21:05;0.98;;;0.88;;
40595;SDS011;26304;48.794;9.820;2022-09-30T14:27:22;0.95;;;0.88;;
40595;SDS011;26304;48.794;9.820;2022-09-30T14:33:15;0.85;;;0.85;;
40595;SDS011;26304;48.794;9.820;2022-09-30T14:39:09;0.90;;;0.90;;
40595;SDS011;26304;48.794;9.820;2022-09-30T14:44:57;0.60;;;0.60;;
40595;SDS011;26304;48.794;9.820;2022-09-30T14:50:45;0.90;;;0.88;;
40595;SDS011;26304;48.794;9.820;2022-09-30T14:56:33;0.80;;;0.80;;
40595;SDS011;26304;48.794;9.820;2022-09-30T15:02:17;0.75;;;0.70;;
40595;SDS011;26304;48.794;9.820;2022-09-30T15:08:01;0.80;;;0.80;;
40595;SDS011;26304;48.794;9.820;2022-09-30T15:13:44;1.30;;;0.80;;
40595;SDS011;26304;48.794;9.820;2022-09-30T15:19:31;0.80;;;0.80;;
40595;SDS011;26304;48.794;9.820;2022-09-30T15:25:15;0.80;;;0.80;;
40595;SDS011;26304;48.794;9.820;2022-09-30T15:31:00;0.80;;;0.70;;
40595;SDS011;26304;48.794;9.820;2022-09-30T15:36:43;0.63;;;0.63;;
40595;SDS011;26304;48.794;9.820;2022-09-30T15:42:28;0.60;;;0.60;;
40595;SDS011;26304;48.794;9.820;2022-09-30T15:54:28;0.60;;;0.60;;
40595;SDS011;26304;48.794;9.820;2022-09-30T16:00:32;0.88;;;0.80;;
40595;SDS011;26304;48.794;9.820;2022-09-30T16:06:20;0.80;;;0.80;;
40595;SDS011;26304;48.794;9.820;2022-09-30T16:12:06;0.65;;;0.63;;
40595;SDS011;26304;48.794;9.820;2022-09-30T16:17:41;0.60;;;0.60;;
40595;SDS011;26304;48.794;9.820;2022-09-30T16:23:29;1.77;;;1.00;;
40595;SDS011;26304;48.794;9.820;2022-09-30T16:29:16;0.98;;;0.90;;
40595;SDS011;26304;48.794;9.820;2022-09-30T16:34:59;1.85;;;0.80;;
40595;SDS011;26304;48.794;9.820;2022-09-30T16:40:43;0.80;;;0.80;;
40595;SDS011;26304;48.794;9.820;2022-09-30T16:46:25;3.83;;;0.90;;
40595;SDS011;26304;48.794;9.820;2022-09-30T16:52:08;2.17;;;1.10;;
40595;SDS011;26304;48.794;9.820;2022-09-30T16:57:55;1.63;;;0.80;;
40595;SDS011;26304;48.794;9.820;2022-09-30T17:03:38;1.35;;;0.93;;
40595;SDS011;26304;48.794;9.820;2022-09-30T17:09:20;2.97;;;1.35;;
40595;SDS011;26304;48.794;9.820;2022-09-30T17:15:04;2.63;;;1.25;;
40595;SDS011;26304;48.794;9.820;2022-09-30T17:20:47;2.35;;;2.00;;
40595;SDS011;26304;48.794;9.820;2022-09-30T17:26:32;3.85;;;2.85;;
40595;SDS011;26304;48.794;9.820;2022-09-30T17:32:16;14.33;;;7.87;;
40595;SDS011;26304;48.794;9.820;2022-09-30T17:37:58;14.27;;;6.95;;
40595;SDS011;26304;48.794;9.820;2022-09-30T17:43:41;14.13;;;7.68;;
40595;SDS011;26304;48.794;9.820;2022-09-30T17:49:33;16.15;;;7.13;;
40595;SDS011;26304;48.794;9.820;2022-09-30T17:55:16;11.90;;;6.40;;
40595;SDS011;26304;48.794;9.820;2022-09-30T18:01:03;13.13;;;5.95;;
40595;SDS011;26304;48.794;9.820;2022-09-30T18:06:48;11.45;;;5.90;;
40595;SDS011;26304;48.794;9.820;2022-09-30T18:12:31;11.13;;;5.80;;
40595;SDS011;26304;48.794;9.820;2022-09-30T18:18:14;10.95;;;5.18;;
40595;SDS011;26304;48.794;9.820;2022-09-30T18:23:58;12.13;;;5.50;;
40595;SDS011;26304;48.794;9.820;2022-09-30T18:29:41;8.98;;;5.32;;
40595;SDS011;26304;48.794;9.820;2022-09-30T18:35:23;10.30;;;4.78;;
40595;SDS011;26304;48.794;9.820;2022-09-30T18:41:07;11.50;;;5.55;;
40595;SDS011;26304;48.794;9.820;2022-09-30T18:46:49;11.55;;;4.65;;
40595;SDS011;26304;48.794;9.820;2022-09-30T18:52:33;8.60;;;4.53;;
40595;SDS011;26304;48.794;9.820;2022-09-30T18:58:17;8.63;;;4.45;;
40595;SDS011;26304;48.794;9.820;2022-09-30T19:04:00;8.35;;;4.50;;
40595;SDS011;26304;48.794;9.820;2022-09-30T19:09:43;7.05;;;3.90;;
40595;SDS011;26304;48.794;9.820;2022-09-30T19:15:28;5.22;;;3.53;;
40595;SDS011;26304;48.794;9.820;2022-09-30T19:21:11;8.00;;;4.70;;
40595;SDS011;26304;48.794;9.820;2022-09-30T19:26:56;6.15;;;3.70;;
40595;SDS011;26304;48.794;9.820;2022-09-30T19:32:40;6.90;;;4.13;;
40595;SDS011;26304;48.794;9.820;2022-09-30T19:38:22;7.40;;;4.25;;
40595;SDS011;26304;48.794;9.820;2022-09-30T19:44:05;8.65;;;4.28;;
40595;SDS011;26304;48.794;9.820;2022-09-30T19:49:48;5.65;;;4.13;;
40595;SDS011;26304;48.794;9.820;2022-09-30T19:55:31;5.80;;;3.95;;
40595;SDS011;26304;48.794;9.820;2022-09-30T20:01:13;5.25;;;4.22;;
40595;SDS011;26304;48.794;9.820;2022-09-30T20:06:59;5.10;;;3.80;;
40595;SDS011;26304;48.794;9.820;2022-09-30T20:12:41;5.03;;;3.53;;
40595;SDS011;26304;48.794;9.820;2022-09-30T20:18:24;4.88;;;4.15;;
40595;SDS011;26304;48.794;9.820;2022-09-30T20:24:08;5.35;;;4.35;;
40595;SDS011;26304;48.794;9.820;2022-09-30T20:29:52;3.95;;;3.55;;
40595;SDS011;26304;48.794;9.820;2022-09-30T20:35:34;6.03;;;3.80;;
40595;SDS011;26304;48.794;9.820;2022-09-30T20:41:18;4.63;;;4.03;;
40595;SDS011;26304;48.794;9.820;2022-09-30T20:47:00;4.47;;;3.60;;
40595;SDS011;26304;48.794;9.820;2022-09-30T20:52:43;4.05;;;3.65;;
40595;SDS011;26304;48.794;9.820;2022-09-30T20:58:26;4.38;;;3.60;;
40595;SDS011;26304;48.794;9.820;2022-09-30T21:04:09;4.68;;;3.40;;
40595;SDS011;26304;48.794;9.820;2022-09-30T21:09:52;4.53;;;3.63;;
40595;SDS011;26304;48.794;9.820;2022-09-30T21:15:36;4.05;;;3.08;;
40595;SDS011;26304;48.794;9.820;2022-09-30T21:21:18;4.53;;;3.58;;
40595;SDS011;26304;48.794;9.820;2022-09-30T21:27:02;3.95;;;3.55;;
40595;SDS011;26304;48.794;9.820;2022-09-30T21:32:47;3.78;;;3.05;;
40595;SDS011;26304;48.794;9.820;2022-09-30T21:38:30;3.53;;;3.22;;
40595;SDS011;26304;48.794;9.820;2022-09-30T21:44:13;3.85;;;3.00;;
40595;SDS011;26304;48.794;9.820;2022-09-30T21:49:57;3.70;;;3.22;;
40595;SDS011;26304;48.794;9.820;2022-09-30T21:55:40;4.10;;;3.15;;
40595;SDS011;26304;48.794;9.820;2022-09-30T22:01:25;3.38;;;3.08;;
40595;SDS011;26304;48.794;9.820;2022-09-30T22:07:08;3.53;;;3.05;;
40595;SDS011;26304;48.794;9.820;2022-09-30T22:12:51;4.43;;;2.92;;
40595;SDS011;26304;48.794;9.820;2022-09-30T22:18:33;3.17;;;2.80;;
40595;SDS011;26304;48.794;9.820;2022-09-30T22:24:17;3.30;;;3.00;;
40595;SDS011;26304;48.794;9.820;2022-09-30T22:30:02;3.13;;;2.83;;
40595;SDS011;26304;48.794;9.820;2022-09-30T22:35:47;4.40;;;3.25;;
40595;SDS011;26304;48.794;9.820;2022-09-30T22:41:48;4.20;;;2.92;;
40595;SDS011;26304;48.794;9.820;2022-09-30T22:47:32;3.88;;;2.97;;
40595;SDS011;26304;48.794;9.820;2022-09-30T22:53:15;3.67;;;2.95;;
40595;SDS011;26304;48.794;9.820;2022-09-30T22:58:59;3.88;;;3.08;;
40595;SDS011;26304;48.794;9.820;2022-09-30T23:04:41;3.20;;;2.88;;
40595;SDS011;26304;48.794;9.820;2022-09-30T23:10:24;4.03;;;3.05;;
40595;SDS011;26304;48.794;9.820;2022-09-30T23:16:08;3.53;;;2.78;;
40595;SDS011;26304;48.794;9.820;2022-09-30T23:21:50;4.03;;;2.88;;
40595;SDS011;26304;48.794;9.820;2022-09-30T23:27:33;3.10;;;2.58;;
40595;SDS011;26304;48.794;9.820;2022-09-30T23:33:17;2.63;;;2.42;;
40595;SDS011;26304;48.794;9.820;2022-09-30T23:39:00;3.55;;;2.85;;
40595;SDS011;26304;48.794;9.820;2022-09-30T23:44:43;3.10;;;2.83;;
40595;SDS011;26304;48.794;9.820;2022-09-30T23:50:27;2.33;;;2.20;;
40595;SDS011;26304;48.794;9.820;2022-09-30T23:56:11;2.75;;;2.55;;
